createdAt,value
2018-07-26T00:00:14.655Z,69.14
2018-07-26T00:00:45.871Z,69.34
2018-07-26T00:01:17.036Z,69.62
2018-07-26T00:01:48.174Z,68.76
2018-07-26T00:02:20.327Z,69.55
2018-07-26T00:02:51.599Z,68.98
2018-07-26T00:03:22.822Z,69.80
2018-07-26T00:03:54.073Z,69.60
2018-07-26T00:04:25.275Z,68.78
2018-07-26T00:04:56.375Z,69.63
2018-07-26T00:05:27.483Z,69.16
2018-07-26T00:05:58.600Z,68.87
2018-07-26T00:06:29.711Z,69.08
2018-07-26T00:07:00.815Z,68.42
2018-07-26T00:07:32.051Z,68.86
2018-07-26T00:08:03.204Z,68.91
2018-07-26T00:08:34.398Z,69.03
2018-07-26T00:09:05.533Z,69.67
2018-07-26T00:09:36.685Z,69.56
2018-07-26T00:10:07.825Z,68.77
2018-07-26T00:10:38.941Z,69.49
2018-07-26T00:11:10.057Z,68.76
2018-07-26T00:11:41.251Z,69.34
2018-07-26T00:12:12.427Z,69.58
2018-07-26T00:12:43.540Z,69.60
2018-07-26T00:13:14.666Z,69.39
2018-07-26T00:13:45.828Z,69.29
2018-07-26T00:14:16.948Z,69.88
2018-07-26T00:14:48.101Z,69.95
2018-07-26T00:15:19.224Z,69.83
2018-07-26T00:15:50.339Z,70.13
2018-07-26T00:16:21.453Z,69.55
2018-07-26T00:16:52.566Z,69.84
2018-07-26T00:17:24.914Z,70.48
2018-07-26T00:17:56.024Z,70.55
2018-07-26T00:18:27.231Z,70.39
2018-07-26T00:18:58.388Z,70.11
2018-07-26T00:19:29.495Z,70.83
2018-07-26T00:20:00.603Z,69.49
2018-07-26T00:20:31.721Z,69.96
2018-07-26T00:21:02.869Z,70.85
2018-07-26T00:21:34.077Z,70.71
2018-07-26T00:22:05.218Z,70.85
2018-07-26T00:22:36.327Z,70.69
2018-07-26T00:23:07.497Z,71.03
2018-07-26T00:23:38.624Z,71.52
2018-07-26T00:24:09.749Z,71.44
2018-07-26T00:24:40.855Z,71.73
2018-07-26T00:25:11.994Z,72.32
2018-07-26T00:25:43.099Z,71.82
2018-07-26T00:26:14.228Z,72.32
2018-07-26T00:26:45.345Z,72.10
2018-07-26T00:27:16.455Z,72.38
2018-07-26T00:27:47.572Z,72.13
2018-07-26T00:28:18.734Z,72.92
2018-07-26T00:28:49.840Z,71.83
2018-07-26T00:29:20.967Z,71.91
2018-07-26T00:29:52.121Z,72.48
2018-07-26T00:30:23.265Z,72.21
2018-07-26T00:30:54.427Z,73.01
2018-07-26T00:31:25.544Z,72.53
2018-07-26T00:31:56.672Z,72.39
2018-07-26T00:32:27.888Z,72.22
2018-07-26T00:32:58.997Z,72.74
2018-07-26T00:33:30.111Z,73.50
2018-07-26T00:34:01.226Z,73.72
2018-07-26T00:34:32.343Z,73.98
2018-07-26T00:35:03.461Z,73.73
2018-07-26T00:35:34.623Z,73.18
2018-07-26T00:36:05.747Z,72.84
2018-07-26T00:36:36.903Z,73.82
2018-07-26T00:37:08.015Z,73.73
2018-07-26T00:37:39.131Z,73.53
2018-07-26T00:38:10.242Z,73.62
2018-07-26T00:38:41.372Z,73.81
2018-07-26T00:39:12.486Z,73.31
2018-07-26T00:39:43.614Z,73.55
2018-07-26T00:40:14.731Z,73.86
2018-07-26T00:40:45.845Z,73.59
2018-07-26T00:41:16.970Z,74.19
2018-07-26T00:41:48.136Z,73.40
2018-07-26T00:42:19.251Z,73.45
2018-07-26T00:42:50.366Z,73.22
2018-07-26T00:43:21.488Z,73.28
2018-07-26T00:43:52.699Z,73.27
2018-07-26T00:44:23.812Z,73.72
2018-07-26T00:44:54.923Z,73.04
2018-07-26T00:45:26.069Z,72.84
2018-07-26T00:45:58.261Z,73.13
2018-07-26T00:46:29.363Z,73.07
2018-07-26T00:47:00.533Z,73.55
2018-07-26T00:47:31.667Z,73.80
2018-07-26T00:48:02.779Z,73.40
2018-07-26T00:48:33.985Z,73.71
2018-07-26T00:49:05.096Z,73.28
2018-07-26T00:49:36.400Z,74.21
2018-07-26T00:50:07.521Z,74.17
2018-07-26T00:50:38.636Z,73.47
2018-07-26T00:51:09.762Z,73.59
2018-07-26T00:51:40.929Z,73.37
2018-07-26T00:52:12.085Z,73.90
2018-07-26T00:52:43.253Z,73.77
2018-07-26T00:53:14.399Z,74.44
2018-07-26T00:53:45.587Z,74.72
2018-07-26T00:54:16.696Z,74.36
2018-07-26T00:54:47.808Z,73.68
2018-07-26T00:55:19.075Z,74.44
2018-07-26T00:55:50.216Z,74.22
2018-07-26T00:56:21.360Z,74.15
2018-07-26T00:56:52.527Z,74.58
2018-07-26T00:57:23.769Z,74.57
2018-07-26T00:57:54.908Z,74.06
2018-07-26T00:58:26.037Z,73.55
2018-07-26T00:58:57.190Z,73.69
2018-07-26T00:59:28.307Z,74.18
2018-07-26T00:59:59.500Z,74.20
2018-07-26T01:00:30.728Z,74.22
2018-07-26T01:01:01.845Z,74.12
2018-07-26T01:01:33.044Z,73.87
2018-07-26T01:02:05.200Z,73.76
2018-07-26T01:02:36.349Z,73.40
2018-07-26T01:03:07.572Z,74.27
2018-07-26T01:03:38.695Z,74.09
2018-07-26T01:04:09.893Z,73.60
2018-07-26T01:04:41.140Z,73.99
2018-07-26T01:05:12.271Z,73.91
2018-07-26T01:05:43.407Z,72.95
2018-07-26T01:06:14.579Z,73.74
2018-07-26T01:06:45.683Z,74.16
2018-07-26T01:07:16.852Z,73.70
2018-07-26T01:07:48.035Z,73.95
2018-07-26T01:08:19.258Z,73.58
2018-07-26T01:08:50.397Z,74.30
2018-07-26T01:09:21.656Z,74.80
2018-07-26T01:09:52.821Z,74.18
2018-07-26T01:10:23.975Z,74.45
2018-07-26T01:10:55.212Z,75.01
2018-07-26T01:11:26.449Z,74.32
2018-07-26T01:11:57.560Z,74.42
2018-07-26T01:12:28.754Z,74.65
2018-07-26T01:12:59.977Z,75.29
2018-07-26T01:13:31.093Z,75.15
2018-07-26T01:14:02.199Z,74.64
2018-07-26T01:14:33.320Z,74.52
2018-07-26T01:15:04.506Z,74.53
2018-07-26T01:15:35.640Z,74.29
2018-07-26T01:16:06.756Z,74.43
2018-07-26T01:16:37.920Z,74.62
2018-07-26T01:17:09.050Z,74.80
2018-07-26T01:17:40.197Z,75.10
2018-07-26T01:18:11.318Z,74.53
2018-07-26T01:18:42.466Z,74.50
2018-07-26T01:19:13.704Z,74.46
2018-07-26T01:19:44.893Z,74.15
2018-07-26T01:20:16.065Z,74.20
2018-07-26T01:20:47.263Z,75.00
2018-07-26T01:21:18.385Z,75.12
2018-07-26T01:21:49.596Z,74.90
2018-07-26T01:22:20.731Z,74.52
2018-07-26T01:22:51.856Z,74.62
2018-07-26T01:23:23.027Z,75.25
2018-07-26T01:23:54.264Z,75.02
2018-07-26T01:24:25.404Z,74.85
2018-07-26T01:24:56.613Z,75.29
2018-07-26T01:25:27.719Z,74.43
2018-07-26T01:25:58.958Z,74.44
2018-07-26T01:26:30.072Z,75.29
2018-07-26T01:27:01.229Z,74.86
2018-07-26T01:27:32.425Z,74.86
2018-07-26T01:28:03.605Z,75.16
2018-07-26T01:28:35.860Z,74.80
2018-07-26T01:29:07.080Z,75.19
2018-07-26T01:29:38.249Z,75.61
2018-07-26T01:30:09.439Z,75.32
2018-07-26T01:30:40.542Z,74.77
2018-07-26T01:31:11.695Z,74.81
2018-07-26T01:31:42.832Z,75.43
2018-07-26T01:32:13.984Z,75.34
2018-07-26T01:32:45.201Z,74.87
2018-07-26T01:33:16.453Z,74.47
2018-07-26T01:33:47.676Z,74.41
2018-07-26T01:34:19.766Z,74.45
2018-07-26T01:34:50.941Z,74.65
2018-07-26T01:35:22.157Z,74.67
2018-07-26T01:35:53.332Z,74.22
2018-07-26T01:36:24.472Z,74.92
2018-07-26T01:36:55.814Z,73.89
2018-07-26T01:37:26.926Z,73.97
2018-07-26T01:37:58.141Z,74.19
2018-07-26T01:38:29.268Z,73.53
2018-07-26T01:39:00.436Z,73.58
2018-07-26T01:39:31.674Z,73.94
2018-07-26T01:40:02.816Z,73.46
2018-07-26T01:40:33.937Z,73.79
2018-07-26T01:41:05.051Z,73.69
2018-07-26T01:41:36.229Z,73.65
2018-07-26T01:42:07.409Z,73.83
2018-07-26T01:42:38.523Z,73.95
2018-07-26T01:43:09.736Z,74.18
2018-07-26T01:43:41.079Z,74.41
2018-07-26T01:44:12.200Z,74.17
2018-07-26T01:44:43.311Z,74.47
2018-07-26T01:45:14.419Z,74.47
2018-07-26T01:45:45.533Z,74.62
2018-07-26T01:46:16.764Z,75.23
2018-07-26T01:46:47.893Z,75.56
2018-07-26T01:47:19.158Z,75.53
2018-07-26T01:47:50.292Z,74.87
2018-07-26T01:48:21.448Z,74.80
2018-07-26T01:48:52.627Z,75.56
2018-07-26T01:49:23.970Z,75.08
2018-07-26T01:49:55.197Z,74.90
2018-07-26T01:50:26.383Z,75.24
2018-07-26T01:50:57.609Z,75.04
2018-07-26T01:51:28.828Z,75.03
2018-07-26T01:52:00.061Z,75.05
2018-07-26T01:52:31.313Z,75.59
2018-07-26T01:53:02.529Z,74.96
2018-07-26T01:53:33.763Z,75.58
2018-07-26T01:54:04.919Z,75.48
2018-07-26T01:54:36.083Z,75.19
2018-07-26T01:55:07.257Z,74.68
2018-07-26T01:55:38.408Z,75.16
2018-07-26T01:56:09.523Z,74.95
2018-07-26T01:56:40.697Z,75.03
2018-07-26T01:57:11.955Z,74.43
2018-07-26T01:57:43.140Z,74.55
2018-07-26T01:58:14.328Z,75.22
2018-07-26T01:58:45.592Z,74.93
2018-07-26T01:59:16.800Z,75.36
2018-07-26T01:59:48.052Z,75.17
2018-07-26T02:00:19.167Z,74.98
2018-07-26T02:00:50.329Z,74.94
2018-07-26T02:01:21.508Z,75.68
2018-07-26T02:01:52.628Z,75.76
2018-07-26T02:02:23.887Z,75.32
2018-07-26T02:02:55.043Z,75.32
2018-07-26T02:03:26.336Z,75.76
2018-07-26T02:03:57.456Z,76.08
2018-07-26T02:04:28.703Z,76.11
2018-07-26T02:05:00.010Z,75.42
2018-07-26T02:05:31.236Z,75.81
2018-07-26T02:06:02.394Z,76.03
2018-07-26T02:06:33.604Z,75.87
2018-07-26T02:07:04.741Z,76.13
2018-07-26T02:07:35.912Z,76.11
2018-07-26T02:08:07.021Z,75.88
2018-07-26T02:08:38.177Z,75.18
2018-07-26T02:09:09.323Z,75.54
2018-07-26T02:09:40.557Z,74.68
2018-07-26T02:10:11.787Z,75.08
2018-07-26T02:10:42.936Z,75.32
2018-07-26T02:11:14.140Z,74.55
2018-07-26T02:11:45.324Z,74.17
2018-07-26T02:12:16.428Z,74.18
2018-07-26T02:12:47.582Z,74.12
2018-07-26T02:13:18.784Z,74.59
2018-07-26T02:13:49.934Z,74.25
2018-07-26T02:14:21.116Z,74.63
2018-07-26T02:14:52.249Z,73.93
2018-07-26T02:15:23.414Z,74.18
2018-07-26T02:15:54.548Z,73.34
2018-07-26T02:16:25.712Z,73.16
2018-07-26T02:16:56.835Z,73.22
2018-07-26T02:17:27.990Z,73.90
2018-07-26T02:17:59.252Z,73.73
2018-07-26T02:18:30.486Z,73.42
2018-07-26T02:19:01.614Z,73.66
2018-07-26T02:19:32.794Z,73.44
2018-07-26T02:20:03.918Z,73.92
2018-07-26T02:20:35.077Z,73.40
2018-07-26T02:21:06.199Z,73.66
2018-07-26T02:21:37.469Z,73.57
2018-07-26T02:22:08.597Z,74.14
2018-07-26T02:22:39.869Z,74.15
2018-07-26T02:23:11.098Z,73.52
2018-07-26T02:23:42.299Z,73.60
2018-07-26T02:24:13.428Z,73.73
2018-07-26T02:24:44.591Z,73.87
2018-07-26T02:25:15.813Z,74.63
2018-07-26T02:25:46.933Z,73.78
2018-07-26T02:26:18.072Z,73.67
2018-07-26T02:26:49.175Z,74.62
2018-07-26T02:27:20.380Z,73.93
2018-07-26T02:27:51.495Z,73.87
2018-07-26T02:28:22.607Z,74.45
2018-07-26T02:28:53.722Z,73.58
2018-07-26T02:29:24.887Z,73.57
2018-07-26T02:29:56.012Z,73.81
2018-07-26T02:30:27.127Z,73.69
2018-07-26T02:30:58.260Z,74.74
2018-07-26T02:31:29.433Z,74.81
2018-07-26T02:32:00.613Z,74.12
2018-07-26T02:32:31.948Z,74.94
2018-07-26T02:33:03.127Z,74.02
2018-07-26T02:33:34.302Z,75.07
2018-07-26T02:34:05.481Z,74.47
2018-07-26T02:34:36.639Z,74.74
2018-07-26T02:35:07.748Z,74.55
2018-07-26T02:35:38.864Z,74.86
2018-07-26T02:36:10.072Z,75.45
2018-07-26T02:36:41.312Z,74.53
2018-07-26T02:37:12.472Z,74.60
2018-07-26T02:37:43.583Z,75.53
2018-07-26T02:38:14.749Z,74.89
2018-07-26T02:38:45.880Z,75.10
2018-07-26T02:39:17.457Z,75.28
2018-07-26T02:39:48.591Z,75.40
2018-07-26T02:40:19.719Z,75.17
2018-07-26T02:40:50.830Z,75.50
2018-07-26T02:41:22.008Z,75.03
2018-07-26T02:41:53.196Z,74.99
2018-07-26T02:42:24.496Z,75.22
2018-07-26T02:42:55.618Z,74.71
2018-07-26T02:43:26.735Z,74.37
2018-07-26T02:43:57.864Z,74.87
2018-07-26T02:44:29.115Z,75.42
2018-07-26T02:45:00.247Z,75.14
2018-07-26T02:45:31.394Z,74.74
2018-07-26T02:46:02.569Z,75.38
2018-07-26T02:46:33.752Z,75.01
2018-07-26T02:47:04.929Z,74.94
2018-07-26T02:47:36.547Z,75.04
2018-07-26T02:48:07.658Z,74.87
2018-07-26T02:48:38.774Z,74.81
2018-07-26T02:49:09.883Z,74.51
2018-07-26T02:49:41.200Z,74.30
2018-07-26T02:50:12.376Z,74.53
2018-07-26T02:50:43.657Z,74.41
2018-07-26T02:51:14.945Z,74.41
2018-07-26T02:51:46.067Z,75.22
2018-07-26T02:52:17.372Z,74.59
2018-07-26T02:52:48.497Z,74.57
2018-07-26T02:53:19.605Z,75.53
2018-07-26T02:53:50.752Z,75.45
2018-07-26T02:54:21.917Z,75.67
2018-07-26T02:54:53.128Z,75.14
2018-07-26T02:55:24.254Z,75.81
2018-07-26T02:55:55.436Z,75.68
2018-07-26T02:56:26.618Z,74.91
2018-07-26T02:56:57.825Z,75.07
2018-07-26T02:57:29.008Z,75.31
2018-07-26T02:58:00.140Z,75.19
2018-07-26T02:58:31.337Z,75.95
2018-07-26T02:59:02.513Z,74.87
2018-07-26T02:59:33.640Z,75.25
2018-07-26T03:00:04.950Z,75.37
2018-07-26T03:00:36.089Z,75.51
2018-07-26T03:01:07.200Z,74.68
2018-07-26T03:01:38.319Z,74.86
2018-07-26T03:02:09.426Z,74.99
2018-07-26T03:02:40.847Z,74.62
2018-07-26T03:03:12.015Z,74.69
2018-07-26T03:03:43.182Z,74.85
2018-07-26T03:04:15.084Z,74.71
2018-07-26T03:04:46.358Z,75.36
2018-07-26T03:05:17.552Z,74.23
2018-07-26T03:05:48.721Z,74.50
2018-07-26T03:06:19.845Z,74.99
2018-07-26T03:06:51.008Z,74.40
2018-07-26T03:07:22.184Z,75.15
2018-07-26T03:07:53.346Z,74.84
2018-07-26T03:08:24.610Z,74.11
2018-07-26T03:08:55.885Z,73.99
2018-07-26T03:09:27.090Z,74.24
2018-07-26T03:09:58.234Z,74.11
2018-07-26T03:10:29.368Z,74.32
2018-07-26T03:11:00.594Z,75.00
2018-07-26T03:11:31.720Z,74.59
2018-07-26T03:12:02.830Z,75.13
2018-07-26T03:12:34.068Z,74.54
2018-07-26T03:13:05.239Z,74.50
2018-07-26T03:13:36.622Z,75.15
2018-07-26T03:14:07.813Z,75.10
2018-07-26T03:14:39.038Z,75.30
2018-07-26T03:15:10.225Z,74.76
2018-07-26T03:15:41.340Z,74.96
2018-07-26T03:16:12.513Z,75.25
2018-07-26T03:16:43.943Z,75.14
2018-07-26T03:17:15.116Z,75.57
2018-07-26T03:17:46.264Z,75.14
2018-07-26T03:18:17.437Z,75.38
2018-07-26T03:18:48.630Z,74.75
2018-07-26T03:19:19.749Z,74.49
2018-07-26T03:19:50.856Z,74.86
2018-07-26T03:20:21.981Z,74.35
2018-07-26T03:20:53.165Z,74.01
2018-07-26T03:21:24.301Z,74.65
2018-07-26T03:21:55.524Z,73.64
2018-07-26T03:22:26.643Z,74.29
2018-07-26T03:22:58.703Z,74.29
2018-07-26T03:23:29.937Z,74.19
2018-07-26T03:24:01.987Z,74.66
2018-07-26T03:24:33.112Z,74.05
2018-07-26T03:25:04.287Z,74.23
2018-07-26T03:25:35.467Z,73.71
2018-07-26T03:26:06.673Z,74.61
2018-07-26T03:26:37.905Z,73.49
2018-07-26T03:27:09.136Z,73.86
2018-07-26T03:27:40.422Z,73.29
2018-07-26T03:28:11.607Z,73.34
2018-07-26T03:28:42.781Z,73.93
2018-07-26T03:29:13.899Z,73.55
2018-07-26T03:29:45.016Z,73.49
2018-07-26T03:30:16.155Z,73.27
2018-07-26T03:30:47.325Z,73.42
2018-07-26T03:31:18.523Z,73.29
2018-07-26T03:31:49.805Z,73.68
2018-07-26T03:32:20.950Z,73.31
2018-07-26T03:32:52.063Z,73.20
2018-07-26T03:33:23.244Z,73.02
2018-07-26T03:33:54.563Z,73.13
2018-07-26T03:34:25.821Z,72.99
2018-07-26T03:34:57.060Z,73.86
2018-07-26T03:35:28.197Z,73.51
2018-07-26T03:35:59.372Z,73.58
2018-07-26T03:36:30.596Z,73.66
2018-07-26T03:37:01.719Z,73.62
2018-07-26T03:37:32.901Z,73.33
2018-07-26T03:38:04.078Z,73.09
2018-07-26T03:38:35.192Z,73.34
2018-07-26T03:39:06.376Z,73.48
2018-07-26T03:39:37.503Z,72.64
2018-07-26T03:40:08.685Z,72.64
2018-07-26T03:40:39.808Z,72.59
2018-07-26T03:41:10.982Z,72.59
2018-07-26T03:41:42.097Z,72.38
2018-07-26T03:42:13.267Z,73.34
2018-07-26T03:42:44.456Z,72.50
2018-07-26T03:43:15.690Z,73.44
2018-07-26T03:43:46.869Z,72.37
2018-07-26T03:44:17.997Z,73.34
2018-07-26T03:44:49.115Z,72.57
2018-07-26T03:45:20.232Z,72.41
2018-07-26T03:45:51.367Z,72.93
2018-07-26T03:46:22.542Z,72.92
2018-07-26T03:46:53.718Z,72.26
2018-07-26T03:47:24.872Z,72.92
2018-07-26T03:47:56.106Z,72.25
2018-07-26T03:48:27.291Z,72.72
2018-07-26T03:48:58.407Z,72.12
2018-07-26T03:49:29.649Z,72.88
2018-07-26T03:50:00.822Z,72.09
2018-07-26T03:50:32.032Z,72.46
2018-07-26T03:51:03.256Z,72.61
2018-07-26T03:51:34.452Z,72.42
2018-07-26T03:52:05.627Z,71.91
2018-07-26T03:52:36.887Z,72.61
2018-07-26T03:53:08.107Z,72.83
2018-07-26T03:53:39.340Z,72.63
2018-07-26T03:54:10.461Z,72.27
2018-07-26T03:54:41.625Z,72.95
2018-07-26T03:55:12.749Z,72.23
2018-07-26T03:55:43.942Z,72.04
2018-07-26T03:56:15.152Z,72.07
2018-07-26T03:56:46.334Z,72.60
2018-07-26T03:57:17.673Z,72.47
2018-07-26T03:57:48.891Z,72.41
2018-07-26T03:58:20.085Z,72.25
2018-07-26T03:58:51.272Z,71.83
2018-07-26T03:59:22.557Z,71.86
2018-07-26T03:59:53.754Z,71.29
2018-07-26T04:00:24.872Z,71.25
2018-07-26T04:00:56.041Z,70.89
2018-07-26T04:01:27.243Z,71.53
2018-07-26T04:01:58.476Z,70.30
2018-07-26T04:02:29.646Z,70.69
2018-07-26T04:03:00.904Z,70.44
2018-07-26T04:03:32.025Z,70.41
2018-07-26T04:04:03.202Z,70.98
2018-07-26T04:04:34.372Z,70.28
2018-07-26T04:05:05.549Z,70.47
2018-07-26T04:05:36.768Z,70.33
2018-07-26T04:06:07.940Z,70.20
2018-07-26T04:06:39.229Z,69.71
2018-07-26T04:07:10.352Z,70.16
2018-07-26T04:07:41.477Z,70.20
2018-07-26T04:08:12.684Z,69.50
2018-07-26T04:08:43.860Z,69.15
2018-07-26T04:09:15.089Z,69.99
2018-07-26T04:09:46.256Z,70.06
2018-07-26T04:10:17.434Z,70.22
2018-07-26T04:10:48.562Z,69.29
2018-07-26T04:11:19.794Z,70.10
2018-07-26T04:11:51.048Z,69.28
2018-07-26T04:12:22.617Z,70.05
2018-07-26T04:12:53.776Z,69.69
2018-07-26T04:13:24.936Z,69.82
2018-07-26T04:13:56.121Z,70.07
2018-07-26T04:14:27.343Z,69.53
2018-07-26T04:14:58.459Z,70.07
2018-07-26T04:15:29.677Z,69.58
2018-07-26T04:16:00.860Z,70.17
2018-07-26T04:16:31.993Z,69.92
2018-07-26T04:17:03.162Z,69.28
2018-07-26T04:17:34.352Z,69.53
2018-07-26T04:18:05.580Z,69.95
2018-07-26T04:18:36.792Z,69.55
2018-07-26T04:19:07.965Z,68.77
2018-07-26T04:19:39.229Z,69.29
2018-07-26T04:20:10.455Z,68.39
2018-07-26T04:20:41.619Z,69.32
2018-07-26T04:21:12.829Z,69.34
2018-07-26T04:21:44.001Z,69.13
2018-07-26T04:22:15.183Z,68.29
2018-07-26T04:22:46.292Z,68.53
2018-07-26T04:23:17.549Z,68.32
2018-07-26T04:23:48.718Z,68.27
2018-07-26T04:24:19.875Z,68.07
2018-07-26T04:24:51.007Z,68.27
2018-07-26T04:25:22.229Z,68.42
2018-07-26T04:25:53.354Z,67.62
2018-07-26T04:26:24.463Z,68.55
2018-07-26T04:26:55.612Z,67.38
2018-07-26T04:27:26.813Z,68.24
2018-07-26T04:27:57.981Z,67.79
2018-07-26T04:28:29.089Z,67.62
2018-07-26T04:29:00.204Z,67.23
2018-07-26T04:29:31.307Z,66.82
2018-07-26T04:30:02.489Z,66.53
2018-07-26T04:30:33.611Z,66.97
2018-07-26T04:31:04.835Z,66.85
2018-07-26T04:31:36.021Z,66.70
2018-07-26T04:32:07.221Z,65.88
2018-07-26T04:32:38.386Z,66.95
2018-07-26T04:33:09.577Z,66.71
2018-07-26T04:33:40.690Z,66.27
2018-07-26T04:34:11.843Z,65.38
2018-07-26T04:34:43.034Z,65.30
2018-07-26T04:35:14.281Z,65.25
2018-07-26T04:35:45.392Z,65.11
2018-07-26T04:36:16.544Z,66.02
2018-07-26T04:36:47.738Z,65.87
2018-07-26T04:37:18.931Z,65.10
2018-07-26T04:37:50.197Z,65.16
2018-07-26T04:38:21.384Z,65.36
2018-07-26T04:38:52.544Z,66.02
2018-07-26T04:39:23.757Z,65.98
2018-07-26T04:39:54.880Z,64.74
2018-07-26T04:40:26.067Z,65.18
2018-07-26T04:40:57.233Z,65.07
2018-07-26T04:41:28.359Z,65.30
2018-07-26T04:41:59.475Z,65.66
2018-07-26T04:42:30.629Z,64.84
2018-07-26T04:43:01.880Z,65.65
2018-07-26T04:43:33.038Z,64.69
2018-07-26T04:44:04.203Z,64.23
2018-07-26T04:44:35.389Z,65.01
2018-07-26T04:45:06.618Z,64.51
2018-07-26T04:45:37.825Z,64.18
2018-07-26T04:46:08.938Z,64.58
2018-07-26T04:46:40.065Z,64.41
2018-07-26T04:47:11.176Z,63.87
2018-07-26T04:47:42.288Z,64.50
2018-07-26T04:48:13.505Z,64.52
2018-07-26T04:48:44.633Z,64.09
2018-07-26T04:49:15.802Z,64.15
2018-07-26T04:49:46.916Z,64.48
2018-07-26T04:50:18.028Z,64.63
2018-07-26T04:50:49.194Z,63.90
2018-07-26T04:51:20.380Z,63.89
2018-07-26T04:51:51.558Z,64.39
2018-07-26T04:52:22.732Z,63.99
2018-07-26T04:52:53.888Z,63.54
2018-07-26T04:53:25.098Z,64.54
2018-07-26T04:53:56.275Z,64.53
2018-07-26T04:54:27.464Z,64.62
2018-07-26T04:54:58.679Z,65.05
2018-07-26T04:55:29.804Z,64.76
2018-07-26T04:56:00.991Z,65.00
2018-07-26T04:56:32.160Z,64.44
2018-07-26T04:57:03.284Z,64.20
2018-07-26T04:57:34.403Z,63.81
2018-07-26T04:58:05.555Z,64.29
2018-07-26T04:58:36.724Z,64.67
2018-07-26T04:59:07.843Z,64.32
2018-07-26T04:59:38.959Z,64.63
2018-07-26T05:00:10.198Z,64.34
2018-07-26T05:00:41.382Z,64.77
2018-07-26T05:01:12.576Z,63.65
2018-07-26T05:01:43.688Z,63.66
2018-07-26T05:02:14.813Z,64.29
2018-07-26T05:02:45.970Z,63.65
2018-07-26T05:03:17.200Z,63.31
2018-07-26T05:03:48.404Z,63.54
2018-07-26T05:04:19.510Z,63.15
2018-07-26T05:04:50.619Z,63.10
2018-07-26T05:05:21.797Z,63.15
2018-07-26T05:05:52.936Z,64.09
2018-07-26T05:06:24.069Z,63.53
2018-07-26T05:06:55.187Z,63.10
2018-07-26T05:07:26.416Z,64.09
2018-07-26T05:07:57.632Z,63.63
2018-07-26T05:08:28.865Z,63.79
2018-07-26T05:09:00.062Z,63.85
2018-07-26T05:09:31.244Z,64.85
2018-07-26T05:10:02.417Z,64.90
2018-07-26T05:10:33.589Z,64.25
2018-07-26T05:11:04.777Z,64.23
2018-07-26T05:11:36.021Z,64.04
2018-07-26T05:12:07.211Z,64.11
2018-07-26T05:12:38.397Z,63.25
2018-07-26T05:13:09.601Z,63.39
2018-07-26T05:13:40.771Z,62.76
2018-07-26T05:14:11.898Z,62.33
2018-07-26T05:14:43.077Z,62.56
2018-07-26T05:15:14.187Z,62.85
2018-07-26T05:15:45.348Z,62.30
2018-07-26T05:16:16.467Z,63.09
2018-07-26T05:16:47.664Z,62.56
2018-07-26T05:17:19.300Z,61.45
2018-07-26T05:17:50.517Z,61.14
2018-07-26T05:18:21.649Z,61.46
2018-07-26T05:18:52.902Z,62.25
2018-07-26T05:19:24.157Z,61.34
2018-07-26T05:19:55.377Z,61.19
2018-07-26T05:20:26.510Z,61.07
2018-07-26T05:20:57.700Z,62.11
2018-07-26T05:21:28.906Z,61.40
2018-07-26T05:22:00.080Z,62.67
2018-07-26T05:22:31.259Z,62.85
2018-07-26T05:23:02.498Z,62.39
2018-07-26T05:23:33.632Z,62.11
2018-07-26T05:24:04.865Z,62.23
2018-07-26T05:24:36.081Z,62.52
2018-07-26T05:25:07.209Z,62.52
2018-07-26T05:25:38.335Z,62.07
2018-07-26T05:26:09.456Z,62.81
2018-07-26T05:26:40.583Z,62.55
2018-07-26T05:27:11.806Z,62.63
2018-07-26T05:27:43.247Z,61.74
2018-07-26T05:28:14.357Z,61.55
2018-07-26T05:28:45.481Z,61.51
2018-07-26T05:29:16.707Z,61.20
2018-07-26T05:29:47.960Z,61.00
2018-07-26T05:30:19.140Z,61.25
2018-07-26T05:30:50.419Z,60.51
2018-07-26T05:31:21.608Z,60.66
2018-07-26T05:31:52.793Z,60.88
2018-07-26T05:32:23.985Z,60.65
2018-07-26T05:32:55.110Z,60.84
2018-07-26T05:33:26.302Z,60.19
2018-07-26T05:33:57.422Z,59.28
2018-07-26T05:34:28.609Z,59.62
2018-07-26T05:34:59.877Z,59.79
2018-07-26T05:35:31.124Z,59.94
2018-07-26T05:36:02.325Z,60.18
2018-07-26T05:36:33.441Z,59.85
2018-07-26T05:37:04.559Z,59.62
2018-07-26T05:37:35.751Z,59.77
2018-07-26T05:38:06.882Z,59.28
2018-07-26T05:38:38.045Z,59.22
2018-07-26T05:39:09.233Z,58.79
2018-07-26T05:39:40.400Z,58.77
2018-07-26T05:40:11.572Z,59.36
2018-07-26T05:40:42.694Z,60.09
2018-07-26T05:41:13.816Z,60.15
2018-07-26T05:41:45.053Z,60.51
2018-07-26T05:42:16.271Z,61.01
2018-07-26T05:42:47.486Z,61.04
2018-07-26T05:43:18.975Z,60.70
2018-07-26T05:43:50.096Z,60.94
2018-07-26T05:44:21.216Z,59.72
2018-07-26T05:44:52.341Z,59.87
2018-07-26T05:45:23.516Z,59.99
2018-07-26T05:45:55.768Z,60.34
2018-07-26T05:46:27.902Z,61.15
2018-07-26T05:46:59.117Z,59.90
2018-07-26T05:47:30.292Z,60.00
2018-07-26T05:48:01.473Z,59.43
2018-07-26T05:48:32.656Z,60.66
2018-07-26T05:49:03.850Z,59.86
2018-07-26T05:49:35.029Z,59.83
2018-07-26T05:50:06.277Z,60.36
2018-07-26T05:50:37.514Z,59.84
2018-07-26T05:51:08.648Z,60.44
2018-07-26T05:51:39.847Z,59.81
2018-07-26T05:52:11.076Z,60.58
2018-07-26T05:52:42.231Z,58.96
2018-07-26T05:53:13.408Z,60.31
2018-07-26T05:53:44.505Z,60.80
2018-07-26T05:54:15.680Z,60.57
2018-07-26T05:54:46.946Z,59.84
2018-07-26T05:55:18.147Z,61.03
2018-07-26T05:55:49.264Z,61.27
2018-07-26T05:56:20.380Z,60.07
2018-07-26T05:56:51.545Z,59.74
2018-07-26T05:57:22.675Z,59.85
2018-07-26T05:57:53.832Z,59.57
2018-07-26T05:58:25.004Z,58.74
2018-07-26T05:58:56.123Z,59.57
2018-07-26T05:59:27.361Z,59.04
2018-07-26T05:59:58.699Z,58.90
2018-07-26T06:00:29.804Z,59.29
2018-07-26T06:01:00.930Z,58.20
2018-07-26T06:01:32.056Z,57.86
2018-07-26T06:02:03.245Z,57.90
2018-07-26T06:02:34.463Z,57.68
2018-07-26T06:03:05.617Z,57.55
2018-07-26T06:03:36.799Z,57.65
2018-07-26T06:04:08.022Z,57.84
2018-07-26T06:04:39.225Z,57.61
2018-07-26T06:05:10.406Z,57.86
2018-07-26T06:05:41.584Z,58.16
2018-07-26T06:06:12.715Z,57.48
2018-07-26T06:06:43.844Z,57.79
2018-07-26T06:07:14.995Z,58.20
2018-07-26T06:07:46.127Z,58.10
2018-07-26T06:08:17.320Z,58.24
2018-07-26T06:08:48.481Z,57.76
2018-07-26T06:09:19.673Z,58.54
2018-07-26T06:09:50.855Z,57.93
2018-07-26T06:10:22.054Z,58.25
2018-07-26T06:10:53.219Z,59.20
2018-07-26T06:11:24.409Z,59.99
2018-07-26T06:11:55.520Z,58.59
2018-07-26T06:12:26.736Z,59.04
2018-07-26T06:12:57.882Z,58.05
2018-07-26T06:13:29.632Z,57.63
2018-07-26T06:14:00.821Z,57.92
2018-07-26T06:14:31.953Z,57.99
2018-07-26T06:15:03.117Z,57.80
2018-07-26T06:15:34.244Z,58.25
2018-07-26T06:16:05.429Z,58.30
2018-07-26T06:16:36.583Z,58.88
2018-07-26T06:17:07.717Z,58.78
2018-07-26T06:17:38.864Z,58.25
2018-07-26T06:18:10.006Z,58.42
2018-07-26T06:18:41.206Z,57.88
2018-07-26T06:19:12.453Z,57.71
2018-07-26T06:19:43.621Z,58.15
2018-07-26T06:20:14.803Z,58.57
2018-07-26T06:20:46.067Z,58.60
2018-07-26T06:21:17.260Z,59.22
2018-07-26T06:21:48.523Z,59.32
2018-07-26T06:22:19.904Z,59.24
2018-07-26T06:22:51.308Z,58.85
2018-07-26T06:23:22.497Z,59.77
2018-07-26T06:23:54.586Z,59.13
2018-07-26T06:24:25.825Z,58.76
2018-07-26T06:24:57.030Z,58.50
2018-07-26T06:25:28.244Z,58.55
2018-07-26T06:25:59.596Z,58.74
2018-07-26T06:26:30.744Z,58.21
2018-07-26T06:27:01.989Z,58.00
2018-07-26T06:27:33.163Z,58.30
2018-07-26T06:28:04.572Z,57.92
2018-07-26T06:28:35.532Z,57.33
2018-07-26T06:29:06.718Z,57.34
2018-07-26T06:29:37.896Z,57.72
2018-07-26T06:30:09.076Z,57.54
2018-07-26T06:30:40.430Z,57.15
2018-07-26T06:31:11.551Z,57.06
2018-07-26T06:31:42.675Z,56.93
2018-07-26T06:32:13.881Z,57.05
2018-07-26T06:32:45.057Z,57.28
2018-07-26T06:33:16.290Z,57.35
2018-07-26T06:33:47.506Z,57.05
2018-07-26T06:34:18.581Z,56.79
2018-07-26T06:34:49.759Z,57.30
2018-07-26T06:35:20.936Z,57.33
2018-07-26T06:35:52.099Z,57.42
2018-07-26T06:36:23.277Z,56.95
2018-07-26T06:36:54.458Z,56.90
2018-07-26T06:37:25.656Z,56.99
2018-07-26T06:37:56.843Z,56.43
2018-07-26T06:38:27.959Z,56.75
2018-07-26T06:38:59.151Z,56.85
2018-07-26T06:39:30.386Z,56.72
2018-07-26T06:40:01.552Z,56.35
2018-07-26T06:40:32.736Z,57.19
2018-07-26T06:41:03.933Z,57.72
2018-07-26T06:41:35.253Z,57.61